Bois Blanc Island, Michigan
Current Conditions -  °F | °C
As of 2:56 AM on Saturday 25 Oct 2014 (Local Time) from KSLH Reporting Station
Broken Clouds Broken Clouds  
Wind Chill: 46°   Ceiling: 3000
Heat Index: 48°   Visibility: 10mi
Dew Point: 46°   Wind: 5mph
Humidity: 95%   Direction: 190°S
Pressure: 29.75"   Gusts: NA
Location:  45.7694°N, 84.4636°W
Report Text: KSLH 250656Z AUTO 19004KT 10SM BKN030 08/07 A2975 RMK AO2 T00870080
Loading
Personal Weather Stations






























Interactive Weather Map
Tropical Storm Tracking
New forecast layout! Learn more

10-Day Weather Forecast

Advertisements
Track Severe Weather on mobile